createdAt,value
2018-05-29T00:00:54.233Z,33.46
2018-05-29T00:03:26.248Z,33.46
2018-05-29T00:05:58.506Z,33.46
2018-05-29T00:08:30.263Z,33.45
2018-05-29T00:11:02.281Z,33.47
2018-05-29T00:13:34.645Z,33.47
2018-05-29T00:18:57.477Z,33.42
2018-05-29T00:21:29.278Z,33.44
2018-05-29T00:24:01.194Z,33.46
2018-05-29T00:26:33.136Z,33.45
2018-05-29T00:29:05.249Z,33.45
2018-05-29T00:31:38.470Z,33.45
2018-05-29T00:36:50.568Z,33.40
2018-05-29T00:39:22.542Z,33.40
2018-05-29T00:41:55.671Z,33.41
2018-05-29T00:47:15.430Z,33.38
2018-05-29T00:49:47.092Z,33.38
2018-05-29T00:52:20.238Z,33.36
2018-05-29T00:55:03.244Z,33.35
2018-05-29T01:01:01.588Z,33.32
2018-05-29T01:03:37.725Z,33.31
2018-05-29T01:06:10.517Z,33.30
2018-05-29T01:08:42.290Z,33.29
2018-05-29T01:12:41.131Z,33.26
2018-05-29T01:15:14.431Z,33.25
2018-05-29T01:17:46.233Z,33.24
2018-05-29T01:20:18.265Z,33.23
2018-05-29T01:22:50.259Z,33.22
2018-05-29T01:25:22.249Z,33.20
2018-05-29T01:27:54.297Z,33.19
2018-05-29T01:30:26.232Z,33.18
2018-05-29T01:32:58.264Z,33.15
2018-05-29T01:35:30.282Z,33.12
2018-05-29T01:38:03.623Z,33.14
2018-05-29T01:40:35.255Z,33.16
2018-05-29T01:43:07.254Z,33.16
2018-05-29T01:45:39.257Z,33.11
2018-05-29T01:48:11.283Z,33.11
2018-05-29T01:50:43.316Z,33.05
2018-05-29T01:53:15.297Z,33.01
2018-05-29T01:55:47.323Z,32.97
2018-05-29T01:58:19.258Z,33.03
2018-05-29T02:00:51.275Z,32.99
2018-05-29T02:03:23.296Z,32.99
2018-05-29T02:05:55.243Z,32.91
2018-05-29T02:08:27.241Z,32.91
2018-05-29T02:11:00.230Z,32.72
2018-05-29T02:13:32.260Z,32.77
2018-05-29T02:18:58.826Z,32.68
2018-05-29T02:24:00.908Z,32.60
2018-05-29T02:26:33.029Z,32.58
2018-05-29T02:31:56.643Z,32.45
2018-05-29T02:34:28.578Z,32.45
2018-05-29T02:37:01.291Z,32.41
2018-05-29T02:39:33.261Z,32.34
2018-05-29T02:42:05.256Z,32.31
2018-05-29T02:47:31.985Z,32.27
2018-05-29T02:50:04.570Z,32.23
2018-05-29T02:55:09.482Z,32.04
2018-05-29T02:57:41.218Z,31.96
2018-05-29T03:00:13.235Z,31.84
2018-05-29T03:02:45.243Z,31.81
2018-05-29T03:05:17.253Z,31.81
2018-05-29T03:07:49.176Z,31.76
2018-05-29T03:10:22.229Z,31.71
2018-05-29T03:12:54.237Z,31.67
2018-05-29T03:15:26.255Z,31.63
2018-05-29T03:17:58.274Z,31.55
2018-05-29T03:20:30.248Z,31.38
2018-05-29T03:23:02.222Z,31.34
2018-05-29T03:25:34.278Z,31.27
2018-05-29T03:28:06.251Z,31.27
2018-05-29T03:30:38.247Z,31.28
2018-05-29T03:33:10.253Z,31.20
2018-05-29T03:35:42.287Z,31.06
2018-05-29T03:38:14.232Z,31.03
2018-05-29T03:40:46.258Z,31.02
2018-05-29T03:43:18.248Z,30.95
2018-05-29T03:45:50.237Z,30.72
2018-05-29T03:48:22.505Z,30.76
2018-05-29T03:50:55.508Z,30.85
2018-05-29T03:53:27.418Z,30.64
2018-05-29T03:55:59.270Z,30.69
2018-05-29T03:58:31.246Z,30.78
2018-05-29T04:01:03.308Z,30.86
2018-05-29T04:03:35.260Z,30.84
2018-05-29T04:06:07.233Z,30.60
2018-05-29T04:08:39.260Z,30.60
2018-05-29T04:11:11.262Z,30.67
2018-05-29T04:13:43.277Z,30.71
2018-05-29T04:16:15.270Z,30.67
2018-05-29T04:18:47.238Z,30.59
2018-05-29T04:21:19.445Z,30.35
2018-05-29T04:23:51.259Z,30.47
2018-05-29T04:26:23.226Z,30.50
2018-05-29T04:28:55.233Z,30.50
2018-05-29T04:31:27.289Z,30.43
2018-05-29T04:33:59.270Z,30.31
2018-05-29T04:36:31.273Z,30.30
2018-05-29T04:39:03.280Z,30.25
2018-05-29T04:41:35.299Z,30.25
2018-05-29T04:44:07.326Z,30.24
2018-05-29T04:46:39.256Z,30.23
2018-05-29T04:49:11.499Z,30.15
2018-05-29T04:51:43.547Z,30.00
2018-05-29T04:54:15.586Z,29.89
2018-05-29T04:56:48.436Z,29.64
2018-05-29T04:59:20.634Z,29.36
2018-05-29T05:01:51.415Z,29.28
2018-05-29T05:04:23.543Z,29.21
2018-05-29T05:06:55.542Z,29.12
2018-05-29T05:09:27.545Z,28.91
2018-05-29T05:11:59.546Z,28.88
2018-05-29T05:14:30.351Z,28.86
2018-05-29T05:17:02.547Z,28.69
2018-05-29T05:19:35.500Z,28.61
2018-05-29T05:22:06.364Z,28.64
2018-05-29T05:24:37.111Z,28.62
2018-05-29T05:27:10.835Z,28.32
2018-05-29T05:29:43.270Z,28.41
2018-05-29T05:32:15.544Z,28.36
2018-05-29T05:34:47.598Z,28.60
2018-05-29T05:37:18.389Z,28.26
2018-05-29T05:39:51.267Z,28.07
2018-05-29T05:42:23.251Z,28.01
2018-05-29T05:44:55.239Z,27.84
2018-05-29T05:47:27.718Z,27.89
2018-05-29T05:51:04.241Z,28.16
2018-05-29T05:53:36.245Z,28.32
2018-05-29T05:56:10.248Z,28.46
2018-05-29T05:58:42.235Z,28.46
2018-05-29T06:01:14.221Z,28.49
2018-05-29T06:03:46.235Z,28.65
2018-05-29T06:06:18.218Z,28.53
2018-05-29T06:08:50.243Z,28.50
2018-05-29T06:11:22.265Z,28.56
2018-05-29T06:16:14.710Z,28.67
2018-05-29T06:18:46.573Z,28.68
2018-05-29T06:21:17.055Z,28.64
2018-05-29T06:23:49.219Z,28.60
2018-05-29T06:26:21.234Z,28.60
2018-05-29T06:28:53.224Z,28.57
2018-05-29T06:31:25.235Z,28.56
2018-05-29T06:33:57.237Z,28.50
2018-05-29T06:36:29.491Z,28.48
2018-05-29T06:39:01.296Z,28.45
2018-05-29T06:41:33.319Z,28.43
2018-05-29T06:44:05.583Z,28.41
2018-05-29T06:46:36.332Z,28.37
2018-05-29T06:49:07.968Z,28.38
2018-05-29T06:51:40.289Z,28.38
2018-05-29T06:54:12.506Z,28.36
2018-05-29T06:56:44.482Z,28.33
2018-05-29T06:59:16.269Z,28.34
2018-05-29T07:01:48.290Z,28.30
2018-05-29T07:04:19.120Z,28.27
2018-05-29T07:06:51.547Z,28.24
2018-05-29T07:09:32.530Z,28.18
2018-05-29T07:12:03.365Z,28.15
2018-05-29T07:14:35.632Z,28.11
2018-05-29T07:17:07.549Z,28.12
2018-05-29T07:19:39.616Z,28.07
2018-05-29T07:22:12.550Z,28.04
2018-05-29T07:24:43.303Z,28.02
2018-05-29T07:27:14.143Z,28.00
2018-05-29T07:29:46.052Z,28.00
2018-05-29T07:32:18.523Z,27.90
2018-05-29T07:37:03.630Z,27.86
2018-05-29T07:39:42.641Z,27.81
2018-05-29T07:42:22.515Z,27.72
2018-05-29T07:45:03.540Z,27.70
2018-05-29T07:47:45.548Z,27.66
2018-05-29T07:50:27.546Z,27.59
2018-05-29T07:53:10.099Z,27.55
2018-05-29T07:55:53.269Z,27.54
2018-05-29T07:58:25.539Z,27.54
2018-05-29T08:00:56.588Z,27.51
2018-05-29T08:03:29.082Z,27.47
2018-05-29T08:06:01.549Z,27.43
2018-05-29T08:08:32.915Z,27.42
2018-05-29T08:11:05.555Z,27.39
2018-05-29T08:13:38.517Z,27.41
2018-05-29T08:16:10.530Z,27.38
2018-05-29T08:18:42.531Z,27.30
2018-05-29T08:21:14.577Z,27.21
2018-05-29T08:23:46.528Z,27.17
2018-05-29T08:26:18.642Z,27.11
2018-05-29T08:28:50.548Z,27.05
2018-05-29T08:31:22.307Z,26.95
2018-05-29T08:33:54.515Z,26.93
2018-05-29T08:36:26.248Z,26.90
2018-05-29T08:38:58.250Z,26.91
2018-05-29T08:41:30.490Z,26.91
2018-05-29T08:44:02.515Z,26.89
2018-05-29T08:46:34.617Z,26.86
2018-05-29T08:49:06.743Z,26.86
2018-05-29T08:51:38.614Z,26.84
2018-05-29T08:54:10.535Z,26.82
2018-05-29T08:56:41.106Z,26.76
2018-05-29T08:59:13.499Z,26.72
2018-05-29T09:06:07.717Z,26.71
2018-05-29T09:08:39.569Z,26.72
2018-05-29T09:11:10.078Z,26.70
2018-05-29T09:13:41.590Z,26.72
2018-05-29T09:16:12.485Z,26.71
2018-05-29T09:21:24.625Z,26.52
2018-05-29T09:23:56.759Z,26.48
2018-05-29T09:26:28.630Z,26.53
2018-05-29T09:28:59.390Z,26.54
2018-05-29T09:34:38.896Z,26.43
2018-05-29T09:37:10.626Z,26.42
2018-05-29T09:39:42.555Z,26.42
2018-05-29T09:42:14.630Z,26.34
2018-05-29T09:44:46.497Z,26.36
2018-05-29T09:47:17.104Z,26.39
2018-05-29T09:49:49.516Z,26.38
2018-05-29T09:52:20.368Z,26.37
2018-05-29T09:55:51.893Z,26.32
2018-05-29T09:58:23.630Z,26.31
2018-05-29T10:00:56.503Z,26.29
2018-05-29T10:03:27.399Z,26.33
2018-05-29T10:08:21.090Z,26.34
2018-05-29T10:10:53.536Z,26.33
2018-05-29T10:13:24.555Z,26.31
2018-05-29T10:18:26.734Z,26.26
2018-05-29T10:20:58.631Z,26.22
2018-05-29T10:23:29.607Z,26.18
2018-05-29T10:26:01.542Z,26.12
2018-05-29T10:28:32.334Z,26.14
2018-05-29T10:31:04.258Z,26.11
2018-05-29T10:33:36.270Z,26.12
2018-05-29T10:36:08.361Z,26.06
2018-05-29T10:38:41.758Z,25.99
2018-05-29T10:41:13.616Z,26.04
2018-05-29T10:43:44.381Z,25.89
2018-05-29T10:49:04.940Z,25.73
2018-05-29T10:51:37.528Z,25.74
2018-05-29T10:54:09.536Z,25.50
2018-05-29T10:56:42.285Z,25.30
2018-05-29T10:59:14.577Z,25.44
2018-05-29T11:01:46.652Z,25.62
2018-05-29T11:04:18.551Z,25.64
2018-05-29T11:06:49.434Z,25.41
2018-05-29T11:09:22.554Z,25.52
2018-05-29T11:11:54.836Z,25.27
2018-05-29T11:14:28.620Z,25.38
2018-05-29T11:17:00.987Z,25.42
2018-05-29T11:19:33.529Z,25.55
2018-05-29T11:22:47.508Z,25.67
2018-05-29T11:26:17.942Z,25.68
2018-05-29T11:28:50.520Z,25.64
2018-05-29T11:32:15.599Z,25.66
2018-05-29T11:34:46.406Z,25.64
2018-05-29T11:37:18.653Z,25.64
2018-05-29T11:39:49.530Z,25.56
2018-05-29T11:42:20.377Z,25.49
2018-05-29T11:44:52.612Z,25.46
2018-05-29T11:47:23.311Z,25.18
2018-05-29T11:49:55.532Z,25.28
2018-05-29T11:52:27.537Z,25.25
2018-05-29T11:54:58.125Z,25.23
2018-05-29T11:57:30.255Z,25.23
2018-05-29T12:00:02.282Z,25.00
2018-05-29T12:02:34.336Z,24.93
2018-05-29T12:05:07.559Z,25.04
2018-05-29T12:07:38.092Z,25.10
2018-05-29T12:10:10.230Z,25.08
2018-05-29T12:12:43.523Z,25.06
2018-05-29T12:15:15.253Z,25.07
2018-05-29T12:17:47.249Z,25.09
2018-05-29T12:20:19.228Z,25.10
2018-05-29T12:22:51.225Z,25.12
2018-05-29T12:25:23.237Z,25.12
2018-05-29T12:27:55.246Z,25.11
2018-05-29T12:30:28.575Z,25.15
2018-05-29T12:32:59.355Z,25.14
2018-05-29T12:35:32.579Z,25.12
2018-05-29T12:38:03.094Z,25.10
2018-05-29T12:40:35.233Z,25.08
2018-05-29T12:44:48.703Z,25.09
2018-05-29T12:47:20.558Z,25.10
2018-05-29T12:52:12.855Z,25.03
2018-05-29T12:54:46.713Z,25.08
2018-05-29T12:57:18.600Z,25.09
2018-05-29T12:59:49.368Z,25.05
2018-05-29T13:05:09.882Z,24.85
2018-05-29T13:07:41.566Z,24.86
2018-05-29T13:10:13.259Z,24.88
2018-05-29T13:12:45.253Z,24.97
2018-05-29T13:15:18.273Z,24.96
2018-05-29T13:17:50.252Z,24.79
2018-05-29T13:20:22.253Z,24.69
2018-05-29T13:22:55.874Z,24.76
2018-05-29T13:27:03.299Z,24.85
2018-05-29T13:29:35.278Z,24.88
2018-05-29T13:32:07.509Z,24.85
2018-05-29T13:34:39.597Z,24.71
2018-05-29T13:37:12.769Z,24.40
2018-05-29T13:39:46.536Z,24.29
2018-05-29T13:42:18.264Z,24.27
2018-05-29T13:44:50.289Z,24.10
2018-05-29T13:47:24.504Z,24.29
2018-05-29T13:49:56.251Z,24.37
2018-05-29T13:52:28.274Z,24.46
2018-05-29T13:55:01.844Z,24.47
2018-05-29T13:58:17.241Z,24.30
2018-05-29T14:00:49.239Z,24.40
2018-05-29T14:03:21.294Z,24.47
2018-05-29T14:05:53.259Z,24.50
2018-05-29T14:08:25.287Z,24.55
2018-05-29T14:10:57.270Z,24.62
2018-05-29T14:13:30.580Z,24.63
2018-05-29T14:16:01.401Z,24.63
2018-05-29T14:18:34.489Z,24.67
2018-05-29T14:21:06.264Z,24.74
2018-05-29T14:23:38.239Z,24.80
2018-05-29T14:26:10.252Z,24.75
2018-05-29T14:28:42.234Z,24.74
2018-05-29T14:34:05.803Z,24.80
2018-05-29T14:36:37.575Z,24.82
2018-05-29T14:39:08.375Z,24.85
2018-05-29T14:41:40.231Z,24.90
2018-05-29T14:44:12.272Z,24.95
2018-05-29T14:46:43.909Z,24.96
2018-05-29T14:49:15.554Z,24.98
2018-05-29T14:51:47.416Z,24.88
2018-05-29T14:54:19.262Z,24.90
2018-05-29T14:56:51.241Z,24.90
2018-05-29T14:59:24.883Z,24.88
2018-05-29T15:01:58.662Z,24.82
2018-05-29T15:05:17.216Z,24.60
2018-05-29T15:08:34.247Z,24.67
2018-05-29T15:11:07.701Z,24.77
2018-05-29T15:13:41.565Z,24.91
2018-05-29T15:16:13.773Z,25.01
2018-05-29T15:18:47.690Z,25.09
2018-05-29T15:21:21.566Z,25.05
2018-05-29T15:23:56.225Z,25.11
2018-05-29T15:26:30.559Z,25.14
2018-05-29T15:29:04.602Z,25.16
2018-05-29T15:31:36.501Z,25.15
2018-05-29T15:34:09.732Z,25.14
2018-05-29T15:36:43.744Z,25.22
2018-05-29T15:39:17.551Z,25.30
2018-05-29T15:41:51.728Z,25.35
2018-05-29T15:44:25.223Z,25.41
2018-05-29T15:46:58.753Z,25.45
2018-05-29T15:49:32.214Z,25.42
2018-05-29T15:52:06.639Z,25.47
2018-05-29T15:54:40.259Z,25.46
2018-05-29T15:57:13.545Z,25.43
2018-05-29T15:59:47.446Z,25.36
2018-05-29T16:02:20.777Z,25.42
2018-05-29T16:04:54.326Z,25.49
2018-05-29T16:07:28.818Z,25.59
2018-05-29T16:10:02.220Z,25.55
2018-05-29T16:12:35.482Z,25.57
2018-05-29T16:15:08.489Z,25.69
2018-05-29T16:17:41.776Z,25.70
2018-05-29T16:20:15.527Z,25.68
2018-05-29T16:22:48.522Z,25.67
2018-05-29T16:25:21.531Z,25.75
2018-05-29T16:27:54.753Z,25.83
2018-05-29T16:30:28.962Z,25.90
2018-05-29T16:33:02.775Z,25.96
2018-05-29T16:35:36.553Z,25.95
2018-05-29T16:38:08.505Z,25.97
2018-05-29T16:40:41.750Z,26.04
2018-05-29T16:43:15.599Z,26.11
2018-05-29T16:45:47.510Z,26.04
2018-05-29T16:48:20.908Z,26.14
2018-05-29T16:50:54.253Z,26.21
2018-05-29T16:53:27.511Z,26.27
2018-05-29T16:56:00.855Z,26.32
2018-05-29T16:58:34.509Z,26.38
2018-05-29T17:01:07.493Z,26.41
2018-05-29T17:03:40.324Z,26.42
2018-05-29T17:06:14.540Z,26.43
2018-05-29T17:08:47.859Z,26.49
2018-05-29T17:11:20.632Z,26.55
2018-05-29T17:13:54.534Z,26.63
2018-05-29T17:16:27.611Z,26.68
2018-05-29T17:18:59.960Z,26.71
2018-05-29T17:21:33.529Z,26.77
2018-05-29T17:24:07.676Z,26.81
2018-05-29T17:26:39.877Z,26.88
2018-05-29T17:29:12.752Z,26.93
2018-05-29T17:31:46.282Z,26.97
2018-05-29T17:34:17.925Z,27.05
2018-05-29T17:36:51.543Z,27.02
2018-05-29T17:39:25.607Z,27.08
2018-05-29T17:41:58.621Z,27.16
2018-05-29T17:46:14.627Z,27.20
2018-05-29T17:48:46.708Z,27.25
2018-05-29T17:51:19.923Z,27.35
2018-05-29T17:53:52.581Z,27.41
2018-05-29T17:56:24.854Z,27.47
2018-05-29T17:59:41.594Z,27.49
2018-05-29T18:02:13.935Z,27.53
2018-05-29T18:04:47.509Z,27.61
2018-05-29T18:09:02.849Z,27.69
2018-05-29T18:11:36.695Z,27.77
2018-05-29T18:14:10.557Z,27.84
2018-05-29T18:16:42.805Z,27.93
2018-05-29T18:19:16.573Z,27.93
2018-05-29T18:21:48.872Z,27.98
2018-05-29T18:24:22.661Z,27.99
2018-05-29T18:26:54.756Z,28.04
2018-05-29T18:29:28.484Z,28.10
2018-05-29T18:32:02.815Z,28.15
2018-05-29T18:34:36.257Z,28.18
2018-05-29T18:37:09.786Z,28.24
2018-05-29T18:39:43.799Z,28.30
2018-05-29T18:42:17.581Z,28.37
2018-05-29T18:44:50.420Z,28.44
2018-05-29T18:47:23.654Z,28.44
2018-05-29T18:49:56.909Z,28.49
2018-05-29T18:52:30.813Z,28.57
2018-05-29T18:55:04.590Z,28.61
2018-05-29T18:57:38.496Z,28.65
2018-05-29T19:00:11.507Z,28.68
2018-05-29T19:02:45.593Z,28.74
2018-05-29T19:08:02.610Z,28.86
2018-05-29T19:10:34.590Z,28.93
2018-05-29T19:13:06.720Z,29.00
2018-05-29T19:15:40.801Z,29.03
2018-05-29T19:18:14.818Z,29.04
2018-05-29T19:20:48.662Z,29.10
2018-05-29T19:23:22.667Z,29.21
2018-05-29T19:25:54.558Z,29.27
2018-05-29T19:28:27.679Z,29.27
2018-05-29T19:31:02.247Z,29.29
2018-05-29T19:33:36.567Z,29.33
2018-05-29T19:36:08.731Z,29.39
2018-05-29T19:38:42.262Z,29.42
2018-05-29T19:41:15.508Z,29.46
2018-05-29T19:43:48.823Z,29.51
2018-05-29T19:46:22.664Z,29.56
2018-05-29T19:48:57.101Z,29.65
2018-05-29T19:51:30.256Z,29.71
2018-05-29T19:54:04.614Z,29.80
2018-05-29T19:56:36.535Z,29.82
2018-05-29T19:59:09.610Z,29.85
2018-05-29T20:01:41.754Z,29.90
2018-05-29T20:04:15.582Z,29.98
2018-05-29T20:06:47.902Z,30.08
2018-05-29T20:09:21.953Z,30.11
2018-05-29T20:11:55.586Z,30.18
2018-05-29T20:14:29.993Z,30.28
2018-05-29T20:17:03.141Z,30.34
2018-05-29T20:19:37.373Z,30.40
2018-05-29T20:22:10.293Z,30.49
2018-05-29T20:24:43.763Z,30.51
2018-05-29T20:27:15.706Z,30.55
2018-05-29T20:29:47.837Z,30.59
2018-05-29T20:32:20.478Z,30.64
2018-05-29T20:34:54.280Z,30.72
2018-05-29T20:37:28.604Z,30.82
2018-05-29T20:40:02.622Z,30.88
2018-05-29T20:42:35.822Z,30.98
2018-05-29T20:45:08.499Z,30.99
2018-05-29T20:47:41.668Z,31.05
2018-05-29T20:50:14.472Z,31.07
2018-05-29T20:55:31.934Z,31.11
2018-05-29T20:58:04.858Z,31.18
2018-05-29T21:00:37.674Z,31.28
2018-05-29T21:03:10.021Z,31.31
2018-05-29T21:05:43.702Z,31.38
2018-05-29T21:08:15.514Z,31.44
2018-05-29T21:10:49.412Z,31.49
2018-05-29T21:13:23.009Z,31.53
2018-05-29T21:15:56.491Z,31.60
2018-05-29T21:18:30.482Z,31.63
2018-05-29T21:21:03.483Z,31.68
2018-05-29T21:23:36.952Z,31.74
2018-05-29T21:26:10.582Z,31.77
2018-05-29T21:28:43.616Z,31.78
2018-05-29T21:31:15.505Z,31.87
2018-05-29T21:33:48.636Z,31.88
2018-05-29T21:36:21.077Z,31.87
2018-05-29T21:38:54.591Z,31.88
2018-05-29T21:41:26.680Z,31.90
2018-05-29T21:43:58.841Z,31.97
2018-05-29T21:46:32.769Z,32.04
2018-05-29T21:49:04.791Z,32.13
2018-05-29T21:51:36.781Z,32.23
2018-05-29T21:54:08.494Z,32.26
2018-05-29T21:56:41.573Z,32.30
2018-05-29T21:59:13.688Z,32.32
2018-05-29T22:01:45.493Z,32.31
2018-05-29T22:04:19.078Z,32.32
2018-05-29T22:06:52.902Z,32.37
2018-05-29T22:09:26.566Z,32.36
2018-05-29T22:11:59.498Z,32.45
2018-05-29T22:14:33.115Z,32.55
2018-05-29T22:17:06.898Z,32.47
2018-05-29T22:20:58.611Z,32.39
2018-05-29T22:23:30.679Z,32.47
2018-05-29T22:26:04.711Z,32.52
2018-05-29T22:28:38.212Z,32.54
2018-05-29T22:31:11.231Z,32.52
2018-05-29T22:33:44.697Z,32.53
2018-05-29T22:36:18.552Z,32.50
2018-05-29T22:38:50.658Z,32.50
2018-05-29T22:41:24.070Z,32.62
2018-05-29T22:43:57.879Z,32.64
2018-05-29T22:46:30.879Z,32.59
2018-05-29T22:49:03.509Z,32.57
2018-05-29T22:51:36.687Z,32.59
2018-05-29T22:54:10.242Z,32.59
2018-05-29T22:56:44.248Z,32.58
2018-05-29T22:59:17.853Z,32.56
2018-05-29T23:01:50.469Z,32.60
2018-05-29T23:04:23.517Z,32.65
2018-05-29T23:06:56.492Z,32.61
2018-05-29T23:09:29.479Z,32.56
2018-05-29T23:12:03.579Z,32.50
2018-05-29T23:14:35.549Z,32.56
2018-05-29T23:17:07.119Z,32.53
2018-05-29T23:19:40.081Z,32.51
2018-05-29T23:22:12.227Z,32.45
2018-05-29T23:24:44.225Z,32.44
2018-05-29T23:27:16.120Z,32.46
2018-05-29T23:29:48.211Z,32.42
2018-05-29T23:32:20.103Z,32.45
2018-05-29T23:37:45.780Z,32.30
2018-05-29T23:40:17.571Z,32.32
2018-05-29T23:42:49.526Z,32.34
2018-05-29T23:45:22.473Z,32.32
2018-05-29T23:47:54.344Z,32.28
2018-05-29T23:50:26.245Z,32.24
2018-05-29T23:52:58.215Z,32.27
2018-05-29T23:55:30.228Z,32.32
2018-05-29T23:58:02.240Z,32.31
